Krebs, Oklahoma
Current Conditions -  °F | °C
As of 12:53 PM on Monday 20 Oct 2014 (Local Time) from KMLC Reporting Station
Scattered Clouds Scattered Clouds  
Wind Chill: 76°   Ceiling: Unl
Heat Index: 76°   Visibility: 10mi
Dew Point: 58°   Wind: 7mph
Humidity: 54%   Direction: 220°SW
Pressure: 30.07"   Gusts: NA
Location:  34.93°N, 95.72°W
Report Text: KMLC 201753Z AUTO 22006KT 10SM SCT060 SCT075 24/14 A3007 RMK AO2 SLP176 T02440144 10244 20128 58014
Loading
Personal Weather Stations






























Interactive Weather Map New forecast layout! Learn more

10-Day Weather Forecast

Advertisements
Track Severe Weather on mobile